Time;durP1;ratioP1;P1;durP2;ratioP2;P2;SDS_P1;SDS_P2;PMS_P1;PMS_P2;Temp;Humidity;BMP_temperature;BMP_pressure;BME280_temperature;BME280_humidity;BME280_pressure;Samples;Min_cycle;Max_cycle;Signal;HPM_P1;HPM_P2
2023/07/04 04:31:52;;;;;;;;;3.75;3.75;;;;;25.78;37.44;101081.66;1416454;26;46133;-76
2023/07/04 04:34:17;;;;;;;;;3.75;3.75;;;;;25.75;37.24;101089.38;4996148;28;45305;-75
2023/07/04 04:36:42;;;;;;;;;3.50;3.50;;;;;25.80;37.29;101089.75;4995397;28;46042;-75
2023/07/04 04:39:08;;;;;;;;;5.25;4.00;;;;;25.91;36.77;101089.50;4997193;28;45413;-75
2023/07/04 04:41:33;;;;;;;;;6.00;3.00;;;;;25.82;37.46;101083.09;4997315;28;45507;-74
2023/07/04 04:44:02;;;;;;;;;5.00;5.00;;;;;25.60;37.73;101089.09;4996977;28;45195;-75
2023/07/04 04:46:27;;;;;;;;;2.75;2.75;;;;;25.71;37.39;101082.47;4996863;28;46131;-73
2023/07/04 04:48:53;;;;;;;;;3.75;3.75;;;;;25.79;37.31;101077.91;4996994;28;45440;-74
2023/07/04 04:51:22;;;;;;;;;4.75;1.75;;;;;25.80;37.60;101082.38;4996764;28;45269;-76
2023/07/04 04:53:48;;;;;;;;;4.00;4.00;;;;;25.67;37.47;101084.69;4996989;28;45496;-75
2023/07/04 04:56:16;;;;;;;;;5.75;3.50;;;;;25.66;37.50;101085.72;4996578;28;45890;-75
2023/07/04 04:58:44;;;;;;;;;4.75;4.25;;;;;25.67;37.71;101073.72;4996840;28;45329;-76
2023/07/04 05:01:22;;;;;;;;;3.50;3.50;;;;;25.85;37.35;101081.91;4996677;28;45277;-74
2023/07/04 05:03:52;;;;;;;;;4.75;3.50;;;;;26.03;37.01;101087.34;4996978;28;45345;-74
2023/07/04 05:06:21;;;;;;;;;4.00;4.00;;;;;26.07;37.25;101069.50;4995285;28;46224;-72
2023/07/04 05:08:47;;;;;;;;;4.75;4.00;;;;;25.97;37.52;101078.72;4994604;28;45266;-75
2023/07/04 05:11:13;;;;;;;;;4.25;2.75;;;;;25.82;37.88;101091.31;4995446;28;45375;-74
2023/07/04 05:13:39;;;;;;;;;8.00;4.50;;;;;25.78;37.90;101080.81;4995661;28;45349;-73
2023/07/04 05:16:07;;;;;;;;;7.00;5.50;;;;;25.82;37.51;101095.97;5008243;28;45967;-74
2023/07/04 05:18:34;;;;;;;;;8.00;5.00;;;;;25.82;37.97;101079.47;5015367;28;45455;-75
2023/07/04 05:21:06;;;;;;;;;2.50;2.50;;;;;25.87;37.75;101086.19;4998489;28;45796;-72
2023/07/04 05:23:34;;;;;;;;;6.00;5.00;;;;;25.98;37.63;101090.56;5015142;28;45697;-75
2023/07/04 05:26:21;;;;;;;;;5.25;4.00;;;;;25.90;37.68;101096.88;5016427;28;45999;-73
2023/07/04 05:28:47;;;;;;;;;7.00;5.25;;;;;25.83;37.81;101084.81;5001672;28;45440;-72
2023/07/04 05:31:18;;;;;;;;;4.50;4.50;;;;;25.82;37.56;101072.09;5016186;28;45323;-74
2023/07/04 05:33:44;;;;;;;;;3.25;3.25;;;;;25.78;38.54;101089.03;4997087;28;45498;-74
2023/07/04 05:36:12;;;;;;;;;6.75;5.50;;;;;25.85;38.00;101084.66;5014670;28;45379;-70
2023/07/04 05:38:38;;;;;;;;;4.00;4.00;;;;;25.97;37.46;101086.09;5012254;28;46002;-70
2023/07/04 05:41:12;;;;;;;;;7.25;4.25;;;;;26.08;37.63;101091.34;5013238;28;45510;-70
2023/07/04 05:43:37;;;;;;;;;5.00;5.00;;;;;26.12;37.47;101084.47;5014468;28;45344;-69
2023/07/04 05:46:03;;;;;;;;;10.50;4.25;;;;;25.99;37.90;101082.19;5015595;28;45469;-73
2023/07/04 05:48:29;;;;;;;;;4.00;3.00;;;;;26.10;37.75;101081.06;5015463;28;45498;-71
2023/07/04 05:50:58;;;;;;;;;11.50;5.25;;;;;26.22;37.79;101092.59;5015741;28;45549;-71
2023/07/04 05:53:28;;;;;;;;;5.00;4.00;;;;;26.22;37.93;101093.47;5015548;28;45426;-71
2023/07/04 05:56:04;;;;;;;;;4.00;3.33;;;;;26.05;37.89;101091.66;5015741;28;46300;-73
2023/07/04 05:58:30;;;;;;;;;3.00;3.00;;;;;26.07;38.02;101077.75;4997662;28;45419;-71
2023/07/04 06:00:59;;;;;;;;;5.00;5.00;;;;;26.09;38.17;101094.94;5015647;28;48485;-73
2023/07/04 06:03:25;;;;;;;;;6.25;3.75;;;;;26.05;38.32;101082.53;5015657;28;45555;-78
2023/07/04 06:05:51;;;;;;;;;8.00;4.00;;;;;25.90;38.30;101087.78;5013579;28;47636;-73
2023/07/04 06:08:16;;;;;;;;;6.50;5.00;;;;;25.95;37.77;101079.91;5015134;28;45332;-74
2023/07/04 06:10:41;;;;;;;;;4.00;4.00;;;;;26.08;38.36;101084.97;5015431;28;45540;-75
2023/07/04 06:13:07;;;;;;;;;6.75;3.50;;;;;25.95;38.23;101077.16;5014931;28;45541;-75
2023/07/04 06:15:39;;;;;;;;;6.25;3.50;;;;;26.08;37.98;101072.09;5014785;28;45551;-74
2023/07/04 06:18:04;;;;;;;;;3.50;3.00;;;;;26.06;38.05;101082.38;5014404;28;45418;-70
2023/07/04 06:20:30;;;;;;;;;9.25;4.00;;;;;26.12;37.86;101067.97;5014579;28;45968;-72
2023/07/04 06:22:55;;;;;;;;;7.50;3.50;;;;;26.23;37.83;101077.84;5015105;28;48199;-70
2023/07/04 06:25:20;;;;;;;;;3.50;2.50;;;;;26.22;37.94;101065.13;5015146;28;49391;-71
2023/07/04 06:27:46;;;;;;;;;3.50;3.50;;;;;26.35;37.48;101080.19;5015617;28;45241;-70
2023/07/04 06:30:12;;;;;;;;;4.75;3.00;;;;;26.53;37.07;101071.00;5015177;28;48311;-72
2023/07/04 06:32:37;;;;;;;;;3.00;3.00;;;;;26.56;36.92;101057.75;5015136;28;45332;-71
2023/07/04 06:35:02;;;;;;;;;5.00;3.25;;;;;26.74;36.90;101064.00;5015245;28;45248;-70
2023/07/04 06:37:28;;;;;;;;;3.50;3.50;;;;;26.83;36.76;101064.03;5014994;28;45337;-71
2023/07/04 06:39:53;;;;;;;;;9.25;5.00;;;;;27.01;36.48;101064.81;5014805;28;45285;-70
2023/07/04 06:42:18;;;;;;;;;6.25;5.00;;;;;27.12;36.54;101053.47;5015345;28;45173;-72
2023/07/04 06:44:45;;;;;;;;;4.25;4.25;;;;;27.23;35.89;101069.63;5014760;28;45485;-70
2023/07/04 06:47:10;;;;;;;;;5.75;3.50;;;;;27.27;35.46;101071.03;5015115;28;45333;-71
2023/07/04 06:49:35;;;;;;;;;5.50;3.25;;;;;27.35;35.77;101079.31;5015208;28;45379;-70
2023/07/04 06:52:01;;;;;;;;;6.00;2.25;;;;;27.38;35.77;101080.88;5014921;28;45273;-71
2023/07/04 06:54:26;;;;;;;;;5.25;2.75;;;;;27.33;35.53;101073.09;5014666;28;47321;-71
2023/07/04 06:56:51;;;;;;;;;6.00;6.00;;;;;27.54;35.74;101085.53;5014614;28;51934;-71
2023/07/04 06:59:17;;;;;;;;;4.00;3.75;;;;;27.67;35.49;101088.63;4997158;28;45388;-71
2023/07/04 07:01:42;;;;;;;;;6.50;4.25;;;;;27.60;35.00;101090.34;5014910;28;46714;-71
2023/07/04 07:04:08;;;;;;;;;5.75;4.00;;;;;27.59;35.05;101077.63;5014878;28;45310;-71
2023/07/04 07:06:34;;;;;;;;;6.75;4.50;;;;;27.72;34.58;101097.25;4996934;28;45490;-70
2023/07/04 07:08:59;;;;;;;;;4.00;3.75;;;;;27.65;35.04;101096.19;5014911;28;45453;-71
2023/07/04 07:11:25;;;;;;;;;5.00;3.25;;;;;27.61;34.52;101094.84;5015045;28;45507;-70
2023/07/04 07:13:50;;;;;;;;;4.75;4.75;;;;;27.77;34.91;101083.81;5014593;28;45478;-72
2023/07/04 07:16:22;;;;;;;;;3.75;3.75;;;;;27.89;34.83;101085.19;5015265;28;45340;-70
2023/07/04 07:18:49;;;;;;;;;6.25;4.00;;;;;27.96;34.73;101086.19;5014799;28;45452;-71
2023/07/04 07:21:18;;;;;;;;;8.50;6.00;;;;;28.01;34.65;101094.78;4996474;28;46291;-71
2023/07/04 07:23:44;;;;;;;;;5.50;4.00;;;;;27.86;34.13;101096.53;5014239;28;47051;-70
2023/07/04 07:26:12;;;;;;;;;5.00;5.00;;;;;27.85;33.32;101098.44;5014773;28;45222;-72
2023/07/04 07:28:39;;;;;;;;;3.25;3.00;;;;;27.71;33.28;101096.38;5014663;28;45396;-71
2023/07/04 07:31:07;;;;;;;;;6.00;4.50;;;;;27.67;33.14;101094.13;5014254;28;45388;-71
2023/07/04 07:33:35;;;;;;;;;3.00;3.00;;;;;27.66;32.93;101089.66;5014079;28;45454;-71
2023/07/04 07:36:10;;;;;;;;;6.00;3.00;;;;;27.61;31.85;101097.59;5014190;28;45309;-71
2023/07/04 07:38:35;;;;;;;;;5.00;3.00;;;;;27.69;32.21;101089.31;4996362;28;45520;-71
2023/07/04 07:41:01;;;;;;;;;4.00;3.00;;;;;27.76;31.90;101087.59;5013812;28;45434;-71
2023/07/04 07:43:27;;;;;;;;;0.75;0.75;;;;;27.88;32.12;101085.34;5014182;28;46127;-70
2023/07/04 07:45:52;;;;;;;;;5.00;3.00;;;;;27.90;31.62;101080.53;5014526;28;45408;-68
2023/07/04 07:48:17;;;;;;;;;4.75;2.50;;;;;27.97;31.86;101073.28;5014648;28;45249;-70
2023/07/04 07:50:44;;;;;;;;;4.50;3.00;;;;;28.13;31.85;101076.88;5014269;28;45241;-68
2023/07/04 07:53:09;;;;;;;;;4.00;3.00;;;;;27.99;31.85;101057.41;5014158;28;46252;-69
2023/07/04 07:55:35;;;;;;;;;2.00;2.00;;;;;28.11;31.96;101078.06;5014645;28;45353;-69
2023/07/04 07:58:09;;;;;;;;;4.50;2.50;;;;;28.15;30.98;101071.19;5015243;28;45394;-69
2023/07/04 08:00:35;;;;;;;;;4.00;3.25;;;;;27.80;30.87;101077.97;5019010;28;45408;-69
2023/07/04 08:03:01;;;;;;;;;4.00;3.00;;;;;27.85;31.65;101070.00;5003736;28;46602;-69
2023/07/04 08:05:26;;;;;;;;;7.00;4.00;;;;;27.71;32.15;101068.84;5019304;28;45349;-69
2023/07/04 08:07:52;;;;;;;;;5.25;3.25;;;;;27.84;31.62;101066.41;5019073;28;45277;-69
2023/07/04 08:10:17;;;;;;;;;5.00;3.50;;;;;27.76;31.28;101060.91;5003855;28;46913;-69
2023/07/04 08:12:43;;;;;;;;;7.25;4.00;;;;;27.67;31.54;101056.44;5017067;28;46179;-69
2023/07/04 08:15:10;;;;;;;;;5.50;3.50;;;;;27.80;31.60;101056.78;5013345;28;45312;-70
2023/07/04 08:17:36;;;;;;;;;3.25;3.00;;;;;28.01;32.06;101047.94;5011674;28;45554;-71
2023/07/04 08:20:02;;;;;;;;;4.25;2.00;;;;;28.19;32.08;101045.84;5013239;28;45411;-71
2023/07/04 08:22:28;;;;;;;;;6.50;4.25;;;;;28.47;32.09;101049.03;5013156;28;45296;-71
2023/07/04 08:24:53;;;;;;;;;4.75;3.00;;;;;28.52;32.04;101045.72;5013957;28;45313;-70
2023/07/04 08:27:19;;;;;;;;;8.25;5.50;;;;;28.67;31.26;101051.38;5012549;28;45550;-71
2023/07/04 08:29:47;;;;;;;;;4.00;4.00;;;;;28.70;30.54;101050.97;5013953;28;45438;-71
2023/07/04 08:32:12;;;;;;;;;3.00;3.00;;;;;28.56;30.40;101050.72;5013169;28;46124;-71
2023/07/04 08:34:37;;;;;;;;;5.25;4.25;;;;;28.53;30.04;101048.31;5013493;28;50675;-70
2023/07/04 08:37:03;;;;;;;;;6.00;3.25;;;;;28.65;30.86;101050.69;5013299;28;45187;-70
2023/07/04 08:39:28;;;;;;;;;4.75;2.75;;;;;28.71;30.14;101049.94;5013415;28;45401;-71
2023/07/04 08:41:59;;;;;;;;;3.75;2.75;;;;;28.51;29.92;101041.25;5013439;28;45954;-70
2023/07/04 08:44:33;;;;;;;;;3.00;3.00;;;;;28.57;30.65;101037.78;5015902;28;45372;-71
2023/07/04 08:46:59;;;;;;;;;7.00;4.00;;;;;28.62;30.91;101035.34;5016957;28;45419;-71
2023/07/04 08:50:05;;;;;;;;;3.50;3.00;;;;;28.80;30.10;101035.97;5016837;28;45302;-71
2023/07/04 08:52:44;;;;;;;;;6.75;4.00;;;;;28.93;30.56;101032.59;4967033;28;47858;-70
2023/07/04 08:55:12;;;;;;;;;8.75;5.25;;;;;29.08;30.23;101033.53;5016009;28;45309;-70
2023/07/04 08:57:56;;;;;;;;;4.00;4.00;;;;;28.86;29.12;101032.47;5016683;28;45413;-69
2023/07/04 09:00:27;;;;;;;;;6.25;3.00;;;;;28.71;29.36;101031.50;5016905;28;45575;-72
2023/07/04 09:03:30;;;;;;;;;4.50;3.25;;;;;28.58;29.62;101032.06;5015943;28;47170;-68
2023/07/04 09:06:15;;;;;;;;;5.00;4.00;;;;;28.48;30.20;101036.09;5015522;28;45306;-67
2023/07/04 09:08:45;;;;;;;;;2.75;2.75;;;;;28.63;30.52;101023.25;5016138;28;45320;-70
2023/07/04 09:11:12;;;;;;;;;7.75;4.75;;;;;28.78;30.84;101024.22;5017795;28;45567;-68
2023/07/04 09:13:42;;;;;;;;;11.00;4.50;;;;;28.74;30.86;101022.00;5016508;28;45400;-69
2023/07/04 09:16:12;;;;;;;;;5.00;3.00;;;;;29.04;30.44;101028.56;5015622;28;45182;-69
2023/07/04 09:19:00;;;;;;;;;4.25;2.50;;;;;29.15;30.35;101026.22;5016821;28;45356;-68
2023/07/04 09:21:28;;;;;;;;;6.00;3.75;;;;;29.31;30.69;101022.47;5014888;28;45459;-70
2023/07/04 09:23:56;;;;;;;;;7.50;5.25;;;;;29.52;30.56;101028.19;5013624;28;46590;-67
2023/07/04 09:26:26;;;;;;;;;6.50;3.50;;;;;29.60;30.21;101022.56;5016188;28;45510;-69
2023/07/04 09:28:53;;;;;;;;;5.25;5.00;;;;;29.78;30.26;101016.69;4997758;28;45478;-71
2023/07/04 09:31:22;;;;;;;;;10.75;10.00;;;;;29.79;29.76;101003.75;5017833;28;46076;-69
2023/07/04 09:33:52;;;;;;;;;5.75;4.00;;;;;29.86;30.47;101007.50;5003258;28;45624;-69
2023/07/04 09:36:20;;;;;;;;;8.25;4.75;;;;;30.00;29.54;101012.19;5020648;28;45517;-68
2023/07/04 09:38:51;;;;;;;;;4.00;3.75;;;;;30.22;29.61;101000.16;5015598;28;45502;-68
2023/07/04 09:41:17;;;;;;;;;5.00;4.00;;;;;30.36;29.26;101007.63;5014819;28;45268;-74
2023/07/04 09:43:43;;;;;;;;;5.00;4.00;;;;;30.30;29.32;101010.25;5015930;28;46255;-74
2023/07/04 09:46:10;;;;;;;;;3.50;2.50;;;;;30.16;28.92;101009.25;5014997;28;45502;-74
2023/07/04 09:48:35;;;;;;;;;7.25;2.75;;;;;30.02;29.18;101012.88;5017309;28;45495;-72
2023/07/04 09:51:16;;;;;;;;;9.50;4.25;;;;;30.02;29.63;101010.09;5016065;28;45344;-72
2023/07/04 09:53:41;;;;;;;;;6.75;3.00;;;;;29.95;29.21;101015.50;5015517;28;45431;-72
2023/07/04 09:56:07;;;;;;;;;6.25;4.25;;;;;29.68;29.25;101014.25;5016300;28;45253;-72
2023/07/04 09:58:34;;;;;;;;;7.25;4.00;;;;;29.64;29.44;101009.25;5017139;28;45220;-70
2023/07/04 10:01:14;;;;;;;;;5.50;5.50;;;;;29.81;29.55;101004.41;5016380;28;46206;-73
2023/07/04 10:03:41;;;;;;;;;5.50;3.50;;;;;30.07;29.40;101000.19;5014667;28;45502;-68
2023/07/04 10:06:09;;;;;;;;;6.00;4.00;;;;;30.20;29.68;100999.50;5015700;28;45236;-73
2023/07/04 10:08:55;;;;;;;;;5.75;5.75;;;;;30.30;29.16;100993.66;5015662;28;45443;-73
2023/07/04 10:11:32;;;;;;;;;6.00;6.00;;;;;30.39;29.47;100984.22;5015156;28;45676;-73
2023/07/04 10:14:00;;;;;;;;;4.25;3.50;;;;;30.37;29.16;100978.88;4998310;28;45962;-73
2023/07/04 10:16:26;;;;;;;;;5.75;5.50;;;;;30.05;29.63;100980.16;5015120;28;45430;-75
2023/07/04 10:19:01;;;;;;;;;7.75;5.75;;;;;30.24;29.34;100975.94;5015088;28;45360;-75
2023/07/04 10:21:26;;;;;;;;;4.00;4.00;;;;;30.29;29.70;100986.41;5015268;28;45814;-75
2023/07/04 10:23:51;;;;;;;;;4.00;4.00;;;;;30.25;30.07;100974.03;5015059;28;45446;-75
2023/07/04 10:26:17;;;;;;;;;8.00;4.75;;;;;30.41;30.12;100982.97;5015502;28;45332;-75
2023/07/04 10:28:42;;;;;;;;;5.25;3.75;;;;;30.48;30.10;100971.97;5015603;28;45194;-73
2023/07/04 10:31:17;;;;;;;;;5.50;3.00;;;;;30.56;29.43;100963.59;4997272;28;45609;-73
2023/07/04 10:33:47;;;;;;;;;4.50;4.50;;;;;30.82;29.38;100977.75;5014998;28;45400;-74
2023/07/04 10:36:26;;;;;;;;;2.50;2.00;;;;;30.96;29.36;100969.59;5014994;28;45396;-73
2023/07/04 10:38:57;;;;;;;;;7.00;3.75;;;;;30.43;29.55;100957.88;5014339;28;45438;-73
2023/07/04 10:41:35;;;;;;;;;5.00;5.00;;;;;30.72;29.99;100970.78;5014564;28;45349;-74
2023/07/04 10:44:09;;;;;;;;;8.00;6.50;;;;;30.65;29.42;100961.56;5012137;28;46401;-75
2023/07/04 10:46:47;;;;;;;;;5.00;5.00;;;;;30.86;29.87;100963.50;5014095;28;45420;-72
2023/07/04 10:49:18;;;;;;;;;6.75;5.25;;;;;30.87;29.55;100956.94;5015086;28;45227;-71
2023/07/04 10:51:46;;;;;;;;;12.75;5.00;;;;;30.84;29.56;100950.72;5014584;28;45411;-73
2023/07/04 10:54:13;;;;;;;;;4.25;4.25;;;;;31.22;29.78;100957.94;5015069;28;46397;-73
2023/07/04 10:56:43;;;;;;;;;6.50;5.50;;;;;31.46;29.54;100949.19;5013890;28;45532;-73
2023/07/04 10:59:38;;;;;;;;;5.25;5.00;;;;;31.53;29.11;100944.53;5012189;28;45380;-74
2023/07/04 11:02:26;;;;;;;;;7.00;5.50;;;;;31.64;29.50;100941.25;5012345;28;45396;-75
2023/07/04 11:04:59;;;;;;;;;4.25;4.25;;;;;31.78;29.02;100954.13;5013628;28;47156;-76
2023/07/04 11:07:26;;;;;;;;;8.25;4.75;;;;;31.69;29.15;100938.72;5013188;28;45347;-73
2023/07/04 11:09:58;;;;;;;;;5.75;5.00;;;;;31.75;28.56;100929.56;5014344;28;45331;-74
2023/07/04 11:12:27;;;;;;;;;6.25;4.75;;;;;31.89;28.77;100916.66;4996076;28;45506;-75
2023/07/04 11:15:00;;;;;;;;;5.00;5.00;;;;;31.93;29.02;100918.81;5014706;28;46111;-73
2023/07/04 11:17:30;;;;;;;;;4.75;4.25;;;;;31.91;28.20;100929.25;5014154;28;45456;-73
2023/07/04 11:20:11;;;;;;;;;8.75;5.75;;;;;32.16;28.65;100914.88;5014715;28;45557;-73
2023/07/04 11:23:00;;;;;;;;;6.00;5.25;;;;;32.03;28.80;100910.09;5013491;28;45316;-75
2023/07/04 11:25:41;;;;;;;;;8.00;5.25;;;;;32.29;28.45;100903.84;5013932;28;46233;-76
2023/07/04 11:28:32;;;;;;;;;7.00;6.00;;;;;31.93;28.04;100906.84;5014483;28;45293;-73
2023/07/04 11:31:14;;;;;;;;;11.25;9.00;;;;;31.86;27.93;100909.59;5014504;28;45404;-74
2023/07/04 11:34:02;;;;;;;;;7.50;6.50;;;;;32.07;27.91;100896.69;5014105;28;45376;-73
2023/07/04 11:36:36;;;;;;;;;8.25;5.00;;;;;32.04;27.90;100899.88;5013057;28;45381;-73
2023/07/04 11:39:34;;;;;;;;;11.50;7.25;;;;;31.98;27.41;100881.28;4996463;28;45427;-74
2023/07/04 11:42:15;;;;;;;;;8.00;6.25;;;;;32.23;27.96;100885.25;5008440;28;45309;-74
2023/07/04 11:44:51;;;;;;;;;4.75;4.50;;;;;32.46;27.10;100888.53;5013583;28;45351;-74
2023/07/04 11:47:33;;;;;;;;;7.00;5.50;;;;;32.41;27.27;100876.34;5001432;28;45344;-73
2023/07/04 11:50:06;;;;;;;;;7.00;7.00;;;;;32.28;27.85;100874.38;5013117;28;45380;-72
2023/07/04 11:52:33;;;;;;;;;9.00;7.25;;;;;31.89;28.10;100872.28;5013157;28;45340;-75
2023/07/04 11:55:01;;;;;;;;;9.75;7.50;;;;;32.19;27.91;100875.63;5014103;28;45656;-73
2023/07/04 11:58:14;;;;;;;;;11.25;6.50;;;;;32.23;27.88;100872.25;5013892;28;45332;-74
2023/07/04 12:00:40;;;;;;;;;7.75;4.25;;;;;32.01;28.41;100869.75;4999229;28;45527;-74
2023/07/04 12:03:20;;;;;;;;;10.75;9.50;;;;;32.10;28.73;100871.28;5013676;28;45471;-77
2023/07/04 12:05:49;;;;;;;;;5.75;5.75;;;;;32.04;28.82;100866.59;5014047;28;45336;-73
2023/07/04 12:08:22;;;;;;;;;10.25;7.00;;;;;31.97;28.87;100863.78;5014042;28;45245;-77
2023/07/04 12:10:49;;;;;;;;;9.50;7.00;;;;;32.11;28.54;100867.47;5012548;28;45436;-74
2023/07/04 12:13:20;;;;;;;;;8.00;7.00;;;;;31.87;29.41;100872.50;5013861;28;45400;-78
2023/07/04 12:15:51;;;;;;;;;8.00;6.25;;;;;31.73;29.34;100864.31;5013415;28;45258;-78
2023/07/04 12:18:26;;;;;;;;;5.50;5.50;;;;;31.52;29.73;100873.53;5014522;28;45485;-76
2023/07/04 12:20:53;;;;;;;;;4.75;4.75;;;;;31.43;29.89;100883.06;5015749;28;45514;-76
2023/07/04 12:23:18;;;;;;;;;5.00;2.50;;;;;31.33;29.67;100874.25;5016830;28;45496;-76
2023/07/04 12:25:49;;;;;;;;;8.75;6.00;;;;;31.36;29.89;100871.94;5017042;28;45538;-74
2023/07/04 12:28:16;;;;;;;;;9.00;8.00;;;;;31.19;29.86;100873.31;5016816;28;46243;-75
2023/07/04 12:30:49;;;;;;;;;8.00;6.00;;;;;31.33;30.02;100874.25;5016866;28;45380;-74
2023/07/04 12:33:35;;;;;;;;;6.00;6.00;;;;;31.29;29.26;100904.28;4999693;28;45324;-76
2023/07/04 12:36:12;;;;;;;;;5.50;5.50;;;;;30.91;29.45;100884.31;5017097;28;45249;-73
2023/07/04 12:38:50;;;;;;;;;7.50;5.25;;;;;30.98;29.15;100865.84;5016553;28;46222;-74
2023/07/04 12:41:18;;;;;;;;;6.50;5.00;;;;;30.56;28.26;100885.25;4997944;28;45479;-74
2023/07/04 12:43:44;;;;;;;;;4.00;4.00;;;;;30.51;28.44;100871.13;5016077;28;45526;-74
2023/07/04 12:46:30;;;;;;;;;6.50;4.75;;;;;30.85;27.90;100874.06;5016126;28;45536;-76
2023/07/04 12:48:57;;;;;;;;;2.75;1.00;;;;;30.60;27.76;100869.97;5006068;28;45276;-75
2023/07/04 12:51:27;;;;;;;;;3.50;3.50;;;;;30.45;27.92;100881.91;5016799;28;45407;-75
2023/07/04 12:53:55;;;;;;;;;6.00;5.00;;;;;30.47;28.14;100868.75;5016097;28;45491;-76
2023/07/04 12:56:20;;;;;;;;;4.50;3.25;;;;;30.60;27.56;100879.16;5015383;28;45593;-74
2023/07/04 12:58:47;;;;;;;;;3.00;3.00;;;;;30.41;28.03;100864.00;5016462;28;46328;-72
2023/07/04 13:01:24;;;;;;;;;4.00;3.00;;;;;30.41;27.86;100863.16;5015207;28;45878;-76
2023/07/04 13:03:58;;;;;;;;;6.75;3.50;;;;;30.41;27.31;100835.47;5014414;28;45233;-74
2023/07/04 13:06:24;;;;;;;;;5.75;3.50;;;;;29.96;30.78;100873.47;5013999;28;45395;-74
2023/07/04 13:08:53;;;;;;;;;5.25;4.00;;;;;30.57;30.35;100871.22;4998768;28;46256;-75
2023/07/04 13:11:26;;;;;;;;;6.25;4.00;;;;;30.21;32.04;100881.41;5016261;28;45292;-74
2023/07/04 13:14:05;;;;;;;;;4.50;4.50;;;;;29.88;32.50;100890.13;5016700;28;45359;-73
2023/07/04 13:16:32;;;;;;;;;4.25;2.50;;;;;29.91;32.38;100898.06;5016335;28;45155;-73
2023/07/04 13:19:05;;;;;;;;;5.75;4.50;;;;;29.88;32.58;100892.03;5016244;28;46112;-73
2023/07/04 13:21:36;;;;;;;;;6.50;4.25;;;;;29.84;33.30;100904.53;5016322;28;45389;-74
2023/07/04 13:24:07;;;;;;;;;3.75;3.50;;;;;29.51;35.04;100901.31;5016474;28;45355;-74
2023/07/04 13:26:34;;;;;;;;;3.75;3.75;;;;;29.33;36.11;100893.34;5015661;28;45388;-73
2023/07/04 13:29:14;;;;;;;;;5.25;3.00;;;;;29.21;37.15;100912.25;5015137;28;45508;-75
2023/07/04 13:31:40;;;;;;;;;6.25;4.50;;;;;28.39;39.13;100902.03;5013231;28;45171;-74
2023/07/04 13:34:13;;;;;;;;;6.00;4.00;;;;;28.59;38.62;100906.00;5015872;28;45403;-74
2023/07/04 13:36:43;;;;;;;;;4.25;4.25;;;;;28.66;38.58;100923.59;5012791;28;45390;-75
2023/07/04 13:39:09;;;;;;;;;4.00;3.25;;;;;28.54;39.35;100916.75;5014267;28;46505;-73
2023/07/04 13:41:35;;;;;;;;;5.75;3.50;;;;;28.43;39.61;100922.69;5015260;28;45415;-73
2023/07/04 13:44:01;;;;;;;;;5.75;5.75;;;;;28.60;40.42;100919.63;5015250;28;45582;-75
2023/07/04 13:46:26;;;;;;;;;3.75;3.75;;;;;28.16;40.64;100900.06;5015282;28;45486;-74
2023/07/04 13:48:52;;;;;;;;;3.75;3.00;;;;;28.20;40.45;100892.31;5014996;28;45495;-74
2023/07/04 13:51:22;;;;;;;;;4.75;4.00;;;;;28.57;40.47;100897.09;5014943;28;45340;-75
2023/07/04 13:53:48;;;;;;;;;5.25;3.75;;;;;28.63;40.00;100904.63;5015716;28;45389;-75
2023/07/04 13:56:13;;;;;;;;;3.50;3.50;;;;;28.50;40.01;100907.13;5014995;28;45253;-73
2023/07/04 13:58:39;;;;;;;;;3.50;3.50;;;;;28.40;39.97;100895.47;5015087;28;45307;-73
2023/07/04 14:01:05;;;;;;;;;4.25;4.25;;;;;27.70;40.63;100903.72;5015003;28;45301;-75
2023/07/04 14:03:31;;;;;;;;;7.50;5.50;;;;;27.89;41.83;100897.78;5015836;28;45305;-70
2023/07/04 14:05:58;;;;;;;;;3.50;3.25;;;;;28.11;41.70;100927.31;5015206;28;45210;-68
2023/07/04 14:08:24;;;;;;;;;5.25;3.50;;;;;27.86;42.16;100896.25;5015797;28;46255;-69
2023/07/04 14:11:02;;;;;;;;;5.25;4.00;;;;;28.04;42.39;100893.22;5015573;28;45292;-68
2023/07/04 14:13:27;;;;;;;;;8.00;5.00;;;;;28.38;41.48;100892.91;5015906;28;45391;-69
2023/07/04 14:15:54;;;;;;;;;4.75;3.25;;;;;28.53;41.77;100893.81;5015487;28;45369;-70
2023/07/04 14:18:19;;;;;;;;;7.25;5.75;;;;;28.98;40.93;100894.88;5015445;28;45381;-69
2023/07/04 14:20:45;;;;;;;;;3.75;3.50;;;;;29.20;40.89;100882.06;5015007;28;45325;-70
2023/07/04 14:23:10;;;;;;;;;2.00;0.75;;;;;29.08;41.16;100884.44;5014845;28;45384;-69
2023/07/04 14:25:35;;;;;;;;;2.50;2.50;;;;;29.22;40.14;100863.41;5013661;28;55622;-70
2023/07/04 14:28:00;;;;;;;;;1.00;1.00;;;;;29.43;39.13;100859.97;5013924;28;58643;-68
2023/07/04 14:30:26;;;;;;;;;4.50;4.00;;;;;29.35;40.34;100871.91;5014097;28;45403;-71
2023/07/04 14:32:51;;;;;;;;;1.50;1.50;;;;;29.40;39.91;100861.19;5014320;28;45372;-70
2023/07/04 14:35:16;;;;;;;;;6.00;3.50;;;;;29.45;39.46;100858.69;5014503;28;47097;-70
2023/07/04 14:37:42;;;;;;;;;4.75;3.00;;;;;29.33;39.75;100855.53;5015283;28;46043;-70
2023/07/04 14:40:08;;;;;;;;;4.25;2.00;;;;;29.24;39.77;100853.06;5014326;28;52874;-70
2023/07/04 14:42:33;;;;;;;;;4.00;4.00;;;;;29.21;39.96;100856.19;4996943;28;45409;-71
2023/07/04 14:44:58;;;;;;;;;2.75;2.75;;;;;29.35;39.44;100849.81;5014223;28;55826;-70
2023/07/04 14:47:24;;;;;;;;;3.00;3.00;;;;;29.50;39.09;100825.00;4997536;28;45343;-71
2023/07/04 14:49:49;;;;;;;;;2.00;2.00;;;;;29.49;39.90;100834.31;5015163;28;45336;-70
2023/07/04 14:52:14;;;;;;;;;0.50;0.50;;;;;29.23;40.27;100849.44;5015105;28;45583;-70
2023/07/04 14:54:40;;;;;;;;;5.75;3.75;;;;;29.35;39.55;100831.34;5014733;28;45538;-69
2023/07/04 14:57:06;;;;;;;;;3.00;2.00;;;;;29.05;40.92;100834.25;5015100;28;45322;-70
2023/07/04 14:59:32;;;;;;;;;3.00;2.00;;;;;29.39;40.53;100833.75;5014783;28;45487;-70
2023/07/04 15:01:59;;;;;;;;;1.50;1.50;;;;;29.61;40.24;100827.25;5015217;28;45404;-70
2023/07/04 15:04:25;;;;;;;;;3.00;2.00;;;;;29.48;40.16;100816.91;5013301;28;46518;-70
2023/07/04 15:06:51;;;;;;;;;2.75;2.25;;;;;29.61;40.24;100808.75;5014690;28;45522;-70
2023/07/04 15:09:19;;;;;;;;;2.00;2.00;;;;;29.77;39.83;100821.53;4996993;28;45418;-70
2023/07/04 15:11:46;;;;;;;;;2.25;2.25;;;;;29.50;39.98;100814.81;5015065;28;45242;-72
2023/07/04 15:14:11;;;;;;;;;6.25;2.25;;;;;29.45;40.98;100828.31;5014479;28;45529;-69
2023/07/04 15:16:37;;;;;;;;;1.25;1.25;;;;;29.13;41.66;100817.59;5014682;28;46093;-69
2023/07/04 15:19:02;;;;;;;;;2.50;1.00;;;;;29.22;41.87;100800.75;5014578;28;45405;-69
2023/07/04 15:21:28;;;;;;;;;2.00;2.00;;;;;29.39;42.17;100809.75;5014274;28;45307;-70
2023/07/04 15:23:53;;;;;;;;;3.75;3.00;;;;;29.61;41.56;100802.38;5014468;28;45440;-69
2023/07/04 15:26:19;;;;;;;;;1.50;1.50;;;;;29.70;40.85;100801.22;5014657;28;45460;-71
2023/07/04 15:28:46;;;;;;;;;2.25;2.00;;;;;29.90;40.62;100795.94;5014478;28;45302;-71
2023/07/04 15:31:12;;;;;;;;;1.50;0.50;;;;;30.22;40.39;100783.56;5014698;28;45296;-71
2023/07/04 15:33:37;;;;;;;;;1.00;1.00;;;;;30.39;39.46;100780.34;5014055;28;45557;-70
2023/07/04 15:36:03;;;;;;;;;3.50;2.50;;;;;30.52;39.53;100773.28;5014494;28;46347;-70
2023/07/04 15:38:29;;;;;;;;;3.75;3.00;;;;;30.61;38.85;100763.78;5014045;28;45427;-70
2023/07/04 15:41:01;;;;;;;;;0.75;0.75;;;;;30.61;38.59;100755.47;5006247;28;45353;-70
2023/07/04 15:43:34;;;;;;;;;2.75;2.50;;;;;30.25;39.56;100752.75;5014312;28;47098;-70
2023/07/04 15:46:07;;;;;;;;;0.50;0.50;;;;;30.58;39.04;100750.31;5014248;28;46571;-71
2023/07/04 15:48:34;;;;;;;;;1.25;1.25;;;;;30.38;39.52;100734.38;5014231;28;45360;-70
2023/07/04 15:51:00;;;;;;;;;3.00;1.75;;;;;30.51;39.48;100730.00;5014228;28;45316;-71
2023/07/04 15:53:27;;;;;;;;;1.00;1.00;;;;;30.48;38.87;100731.25;5016284;28;45273;-71
2023/07/04 15:55:59;;;;;;;;;4.75;3.00;;;;;30.55;39.60;100723.91;5017987;28;45318;-70
2023/07/04 15:58:25;;;;;;;;;1.00;1.00;;;;;30.64;38.98;100722.69;5017550;28;45372;-70
2023/07/04 16:00:55;;;;;;;;;1.50;1.50;;;;;30.72;38.85;100716.16;5018094;28;45405;-70
2023/07/04 16:03:20;;;;;;;;;1.50;1.50;;;;;30.90;39.10;100712.88;5017874;28;45812;-70
2023/07/04 16:05:45;;;;;;;;;2.75;2.50;;;;;31.20;37.99;100714.38;5017423;28;46015;-71